createdAt,value
2022-08-17T00:00:42.735Z,17.60
2022-08-17T00:03:13.597Z,17.60
2022-08-17T00:05:45.947Z,17.50
2022-08-17T00:08:15.980Z,17.50
2022-08-17T00:10:46.945Z,17.40
2022-08-17T00:13:18.545Z,17.40
2022-08-17T00:15:47.207Z,17.40
2022-08-17T00:19:06.231Z,17.30
2022-08-17T00:21:10.452Z,17.30
2022-08-17T00:23:44.439Z,17.30
2022-08-17T00:26:43.593Z,17.20
2022-08-17T00:29:08.998Z,17.20
2022-08-17T00:31:38.213Z,17.10
2022-08-17T00:34:10.200Z,17.10
2022-08-17T00:36:38.695Z,17.10
2022-08-17T00:39:07.345Z,17.10
2022-08-17T00:41:35.965Z,17.20
2022-08-17T00:44:09.833Z,17.20
2022-08-17T00:46:41.052Z,17.20
2022-08-17T00:49:12.585Z,17.10
2022-08-17T00:51:45.461Z,17.10
2022-08-17T00:54:19.384Z,17.10
2022-08-17T00:56:52.045Z,17.00
2022-08-17T00:59:24.298Z,16.90
2022-08-17T01:01:53.797Z,16.80
2022-08-17T01:04:24.060Z,16.70
2022-08-17T01:06:54.482Z,16.70
2022-08-17T01:09:23.474Z,16.70
2022-08-17T01:11:52.436Z,16.60
2022-08-17T01:14:21.713Z,16.60
2022-08-17T01:16:52.081Z,16.60
2022-08-17T01:19:28.848Z,16.50
2022-08-17T01:22:04.423Z,16.50
2022-08-17T01:24:35.305Z,16.50
2022-08-17T01:27:04.328Z,16.40
2022-08-17T01:29:42.275Z,16.40
2022-08-17T01:32:11.372Z,16.40
2022-08-17T01:34:43.817Z,16.40
2022-08-17T01:37:21.320Z,16.40
2022-08-17T01:39:55.258Z,16.30
2022-08-17T01:42:31.072Z,16.30
2022-08-17T01:45:03.740Z,16.30
2022-08-17T01:47:32.488Z,16.30
2022-08-17T01:50:10.594Z,16.30
2022-08-17T01:52:39.843Z,16.40
2022-08-17T01:55:11.649Z,16.40
2022-08-17T01:57:40.140Z,16.40
2022-08-17T02:00:10.886Z,16.40
2022-08-17T02:02:39.535Z,16.40
2022-08-17T02:05:09.849Z,16.30
2022-08-17T02:07:59.315Z,16.30
2022-08-17T02:10:34.020Z,16.30
2022-08-17T02:13:03.301Z,16.20
2022-08-17T02:15:32.058Z,16.20
2022-08-17T02:18:00.809Z,16.10
2022-08-17T02:20:42.615Z,16.10
2022-08-17T02:23:14.516Z,16.10
2022-08-17T02:25:48.956Z,16.00
2022-08-17T02:28:18.984Z,16.00
2022-08-17T02:30:59.741Z,15.90
2022-08-17T02:33:43.266Z,15.90
2022-08-17T02:36:13.403Z,15.80
2022-08-17T02:38:42.395Z,15.70
2022-08-17T02:41:13.122Z,15.60
2022-08-17T02:43:41.976Z,15.60
2022-08-17T02:46:12.809Z,15.50
2022-08-17T02:48:41.931Z,15.50
2022-08-17T02:51:10.639Z,15.50
2022-08-17T02:53:39.125Z,15.50
2022-08-17T02:56:08.100Z,15.60
2022-08-17T02:58:38.088Z,15.60
2022-08-17T03:01:09.065Z,15.60
2022-08-17T03:03:38.758Z,15.60
2022-08-17T03:06:08.681Z,15.60
2022-08-17T03:08:38.277Z,15.50
2022-08-17T03:11:06.775Z,15.50
2022-08-17T03:13:35.315Z,15.50
2022-08-17T03:16:07.384Z,15.50
2022-08-17T03:18:36.963Z,15.40
2022-08-17T03:21:06.861Z,15.40
2022-08-17T03:23:41.085Z,15.40
2022-08-17T03:26:12.375Z,15.40
2022-08-17T03:28:44.001Z,15.30
2022-08-17T03:31:13.977Z,15.30
2022-08-17T03:33:42.545Z,15.30
2022-08-17T03:36:11.377Z,15.30
2022-08-17T03:38:39.952Z,15.30
2022-08-17T03:41:08.708Z,15.30
2022-08-17T03:43:37.269Z,15.20
2022-08-17T03:46:34.398Z,15.20
2022-08-17T03:49:24.239Z,15.20
2022-08-17T03:52:10.470Z,15.10
2022-08-17T03:54:56.712Z,15.10
2022-08-17T03:57:25.912Z,15.10
2022-08-17T03:59:55.111Z,15.20
2022-08-17T04:02:26.710Z,15.20
2022-08-17T04:04:56.871Z,15.20
2022-08-17T04:07:33.686Z,15.20
2022-08-17T04:10:04.281Z,15.20
2022-08-17T04:12:45.344Z,15.30
2022-08-17T04:15:14.113Z,15.30
2022-08-17T04:17:44.310Z,15.30
2022-08-17T04:20:16.519Z,15.30
2022-08-17T04:22:58.193Z,15.40
2022-08-17T04:25:27.487Z,15.40
2022-08-17T04:27:56.687Z,15.40
2022-08-17T04:30:25.218Z,15.40
2022-08-17T04:33:03.552Z,15.50
2022-08-17T04:35:45.704Z,15.60
2022-08-17T04:38:16.400Z,15.60
2022-08-17T04:40:59.137Z,15.60
2022-08-17T04:43:29.100Z,15.70
2022-08-17T04:46:01.477Z,15.80
2022-08-17T04:48:36.401Z,15.80
2022-08-17T04:51:10.541Z,15.90
2022-08-17T04:53:40.422Z,16.10
2022-08-17T04:56:16.205Z,16.20
2022-08-17T04:58:46.884Z,16.40
2022-08-17T05:01:15.514Z,16.50
2022-08-17T05:03:44.613Z,16.70
2022-08-17T05:06:14.653Z,16.90
2022-08-17T05:08:43.370Z,17.10
2022-08-17T05:11:11.968Z,17.20
2022-08-17T05:13:40.378Z,17.40
2022-08-17T05:16:10.437Z,17.60
2022-08-17T05:18:39.606Z,18.00
2022-08-17T05:21:08.777Z,18.40
2022-08-17T05:23:42.494Z,18.80
2022-08-17T05:26:26.387Z,19.10
2022-08-17T05:28:59.557Z,19.40
2022-08-17T05:31:30.065Z,19.80
2022-08-17T05:33:59.043Z,19.90
2022-08-17T05:36:42.397Z,20.00
2022-08-17T05:39:16.545Z,20.20
2022-08-17T05:41:49.021Z,20.30
2022-08-17T05:44:18.148Z,20.40
2022-08-17T05:46:50.646Z,20.50
2022-08-17T05:49:24.686Z,20.60
2022-08-17T05:52:10.839Z,20.80
2022-08-17T05:54:58.397Z,20.90
2022-08-17T05:57:54.128Z,21.00
2022-08-17T06:00:30.140Z,21.10
2022-08-17T06:03:27.491Z,21.20
2022-08-17T06:06:06.549Z,21.30
2022-08-17T06:08:46.150Z,21.30
2022-08-17T06:11:24.084Z,21.40
2022-08-17T06:14:11.247Z,21.60
2022-08-17T06:16:44.586Z,21.80
2022-08-17T06:19:16.934Z,22.00
2022-08-17T06:21:48.410Z,22.00
2022-08-17T06:24:29.529Z,22.10
2022-08-17T06:27:07.950Z,22.20
2022-08-17T06:29:42.708Z,22.20
2022-08-17T06:32:13.616Z,22.20
2022-08-17T06:34:44.519Z,22.20
2022-08-17T06:37:26.796Z,22.20
2022-08-17T06:40:04.206Z,22.30
2022-08-17T06:42:54.760Z,22.50
2022-08-17T06:45:39.290Z,22.60
2022-08-17T06:48:14.119Z,22.80
2022-08-17T06:50:49.035Z,22.80
2022-08-17T06:53:24.669Z,22.90
2022-08-17T06:55:59.958Z,23.00
2022-08-17T06:58:31.493Z,23.10
2022-08-17T07:01:05.418Z,23.10
2022-08-17T07:03:39.514Z,23.20
2022-08-17T07:06:13.771Z,23.20
2022-08-17T07:08:54.236Z,23.20
2022-08-17T07:11:31.421Z,23.20
2022-08-17T07:14:17.492Z,23.30
2022-08-17T07:16:48.500Z,23.30
2022-08-17T07:19:18.053Z,23.40
2022-08-17T07:21:55.074Z,23.40
2022-08-17T07:24:37.365Z,23.50
2022-08-17T07:27:14.016Z,23.50
2022-08-17T07:29:47.942Z,23.60
2022-08-17T07:32:20.367Z,23.70
2022-08-17T07:35:11.590Z,23.80
2022-08-17T07:37:41.751Z,24.00
2022-08-17T07:40:20.768Z,24.10
2022-08-17T07:43:23.601Z,24.30
2022-08-17T07:46:32.386Z,24.40
2022-08-17T07:49:23.444Z,24.50
2022-08-17T07:51:58.243Z,24.70
2022-08-17T07:54:43.939Z,24.80
2022-08-17T07:57:32.081Z,24.80
2022-08-17T08:00:31.848Z,25.00
2022-08-17T08:03:27.167Z,25.10
2022-08-17T08:06:00.376Z,25.20
2022-08-17T08:08:35.441Z,25.30
2022-08-17T08:11:08.421Z,25.40
2022-08-17T08:13:42.785Z,25.60
2022-08-17T08:16:24.473Z,25.70
2022-08-17T08:18:58.413Z,25.80
2022-08-17T08:21:36.583Z,25.90
2022-08-17T08:24:20.764Z,26.10
2022-08-17T08:26:58.127Z,26.30
2022-08-17T08:29:34.785Z,26.50
2022-08-17T08:32:09.803Z,26.70
2022-08-17T08:35:02.290Z,26.90
2022-08-17T08:37:49.525Z,27.00
2022-08-17T08:40:35.947Z,27.20
2022-08-17T08:43:13.705Z,27.30
2022-08-17T08:45:50.376Z,27.40
2022-08-17T08:48:53.391Z,27.50
2022-08-17T08:51:33.826Z,27.60
2022-08-17T08:54:07.376Z,27.70
2022-08-17T08:57:11.511Z,27.80
2022-08-17T08:59:35.164Z,28.00
2022-08-17T09:02:25.306Z,28.20
2022-08-17T09:05:14.249Z,28.20
2022-08-17T09:07:57.301Z,28.40
2022-08-17T09:10:30.492Z,28.50
2022-08-17T09:13:10.282Z,28.60
2022-08-17T09:15:44.215Z,28.70
2022-08-17T09:19:01.043Z,28.90
2022-08-17T09:21:20.990Z,28.90
2022-08-17T09:24:04.790Z,29.00
2022-08-17T09:26:39.536Z,29.00
2022-08-17T09:29:13.895Z,29.20
2022-08-17T09:31:55.379Z,29.30
2022-08-17T09:34:33.440Z,29.40
2022-08-17T09:37:10.412Z,29.60
2022-08-17T09:39:47.613Z,29.70
2022-08-17T09:42:22.906Z,30.00
2022-08-17T09:45:02.116Z,30.20
2022-08-17T09:47:40.655Z,30.40
2022-08-17T09:50:14.291Z,30.50
2022-08-17T09:52:44.222Z,30.60
2022-08-17T09:55:14.117Z,30.70
2022-08-17T09:57:54.805Z,31.00
2022-08-17T10:00:27.730Z,31.20
2022-08-17T10:03:36.632Z,31.40
2022-08-17T10:06:13.238Z,31.60
2022-08-17T10:08:51.960Z,31.80
2022-08-17T10:11:52.848Z,32.00
2022-08-17T10:14:37.990Z,32.20
2022-08-17T10:17:20.494Z,32.30
2022-08-17T10:19:59.067Z,32.40
2022-08-17T10:22:53.100Z,32.60
2022-08-17T10:25:54.511Z,32.70
2022-08-17T10:28:31.092Z,32.90
2022-08-17T10:31:33.057Z,32.90
2022-08-17T10:34:13.349Z,33.10
2022-08-17T10:36:50.390Z,33.30
2022-08-17T10:39:31.091Z,33.40
2022-08-17T10:42:04.076Z,33.60
2022-08-17T10:44:49.665Z,33.70
2022-08-17T10:47:19.552Z,33.90
2022-08-17T10:49:54.237Z,34.00
2022-08-17T10:52:50.145Z,34.20
2022-08-17T10:55:20.704Z,34.40
2022-08-17T10:57:51.359Z,34.50
2022-08-17T11:01:03.843Z,34.70
2022-08-17T11:03:33.980Z,35.00
2022-08-17T11:06:14.616Z,35.30
2022-08-17T11:09:18.700Z,35.50
2022-08-17T11:12:08.065Z,35.60
2022-08-17T11:14:53.972Z,35.70
2022-08-17T11:18:08.719Z,35.70
2022-08-17T11:21:05.320Z,36.00
2022-08-17T11:23:57.885Z,36.20
2022-08-17T11:26:30.230Z,35.90
2022-08-17T11:29:05.178Z,35.70
2022-08-17T11:31:39.887Z,35.40
2022-08-17T11:34:18.555Z,35.30
2022-08-17T11:37:13.002Z,35.20
2022-08-17T11:40:12.426Z,34.90
2022-08-17T11:43:27.195Z,34.80
2022-08-17T11:46:11.824Z,34.70
2022-08-17T11:49:05.845Z,34.80
2022-08-17T11:52:09.642Z,34.80
2022-08-17T11:54:48.256Z,34.80
2022-08-17T11:58:05.979Z,34.90
2022-08-17T12:00:56.458Z,34.80
2022-08-17T12:03:54.101Z,34.60
2022-08-17T12:06:41.354Z,34.60
2022-08-17T12:09:15.776Z,34.50
2022-08-17T12:12:01.688Z,34.60
2022-08-17T12:15:09.016Z,34.80
2022-08-17T12:17:41.639Z,35.10
2022-08-17T12:20:15.065Z,35.10
2022-08-17T12:22:54.925Z,34.80
2022-08-17T12:25:33.286Z,34.30
2022-08-17T12:28:06.385Z,33.90
2022-08-17T12:30:37.875Z,33.80
2022-08-17T12:33:25.211Z,33.80
2022-08-17T12:36:00.187Z,33.90
2022-08-17T12:38:33.338Z,34.10
2022-08-17T12:41:25.494Z,34.10
2022-08-17T12:43:58.786Z,34.10
2022-08-17T12:46:27.299Z,34.30
2022-08-17T12:48:59.924Z,34.70
2022-08-17T12:51:29.985Z,35.10
2022-08-17T12:53:58.609Z,35.30
2022-08-17T12:56:30.031Z,35.50
2022-08-17T12:58:58.689Z,35.60
2022-08-17T13:01:35.011Z,35.70
2022-08-17T13:04:03.778Z,35.70
2022-08-17T13:06:34.873Z,36.00
2022-08-17T13:09:12.513Z,36.00
2022-08-17T13:11:51.014Z,35.80
2022-08-17T13:14:19.641Z,35.50
2022-08-17T13:16:56.113Z,35.30
2022-08-17T13:19:29.892Z,35.30
2022-08-17T13:22:13.123Z,35.30
2022-08-17T13:24:54.420Z,35.30
2022-08-17T13:27:27.756Z,35.20
2022-08-17T13:29:59.605Z,35.00
2022-08-17T13:32:39.900Z,34.90
2022-08-17T13:35:40.003Z,34.70
2022-08-17T13:38:11.843Z,34.60
2022-08-17T13:40:53.149Z,34.40
2022-08-17T13:43:45.667Z,34.30
2022-08-17T13:46:21.331Z,33.90
2022-08-17T13:49:00.279Z,33.70
2022-08-17T13:51:42.828Z,33.50
2022-08-17T13:54:25.604Z,33.20
2022-08-17T13:57:00.512Z,33.10
2022-08-17T13:59:53.422Z,33.10
2022-08-17T14:02:27.233Z,33.00
2022-08-17T14:04:58.617Z,32.90
2022-08-17T14:07:33.865Z,32.80
2022-08-17T14:10:06.853Z,32.80
2022-08-17T14:12:36.586Z,32.80
2022-08-17T14:15:07.659Z,33.10
2022-08-17T14:17:38.872Z,33.30
2022-08-17T14:20:10.541Z,33.50
2022-08-17T14:22:44.142Z,33.60
2022-08-17T14:25:14.777Z,33.80
2022-08-17T14:27:53.433Z,33.90
2022-08-17T14:30:25.485Z,33.90
2022-08-17T14:32:58.180Z,34.00
2022-08-17T14:35:29.294Z,34.00
2022-08-17T14:37:57.857Z,34.00
2022-08-17T14:40:27.279Z,34.00
2022-08-17T14:42:57.978Z,33.90
2022-08-17T14:45:31.798Z,33.90
2022-08-17T14:48:05.781Z,33.80
2022-08-17T14:50:35.721Z,33.60
2022-08-17T14:53:05.388Z,33.50
2022-08-17T14:55:34.755Z,33.40
2022-08-17T14:58:04.098Z,33.30
2022-08-17T15:00:33.986Z,33.20
2022-08-17T15:03:03.330Z,33.10
2022-08-17T15:05:34.391Z,33.00
2022-08-17T15:08:04.683Z,32.70
2022-08-17T15:10:34.157Z,32.40
2022-08-17T15:13:02.610Z,32.10
2022-08-17T15:15:31.161Z,31.90
2022-08-17T15:18:02.614Z,31.70
2022-08-17T15:20:31.670Z,31.40
2022-08-17T15:23:00.137Z,31.10
2022-08-17T15:25:31.884Z,31.00
2022-08-17T15:28:01.516Z,31.00
2022-08-17T15:30:30.989Z,31.10
2022-08-17T15:33:02.193Z,31.00
2022-08-17T15:35:33.639Z,30.90
2022-08-17T15:38:11.075Z,30.90
2022-08-17T15:40:42.721Z,30.70
2022-08-17T15:43:13.579Z,30.50
2022-08-17T15:45:42.590Z,30.30
2022-08-17T15:48:14.365Z,30.20
2022-08-17T15:50:42.852Z,30.20
2022-08-17T15:53:11.419Z,30.10
2022-08-17T15:55:44.066Z,30.10
2022-08-17T15:58:12.631Z,30.00
2022-08-17T16:00:53.095Z,30.00
2022-08-17T16:03:56.094Z,29.90
2022-08-17T16:06:21.689Z,29.80
2022-08-17T16:08:50.090Z,29.70
2022-08-17T16:11:19.017Z,29.70
2022-08-17T16:13:54.735Z,29.70
2022-08-17T16:16:24.382Z,29.80
2022-08-17T16:18:54.738Z,29.80
2022-08-17T16:21:27.375Z,29.90
2022-08-17T16:23:58.196Z,29.90
2022-08-17T16:26:27.516Z,29.90
2022-08-17T16:28:56.889Z,29.90
2022-08-17T16:31:26.278Z,30.00
2022-08-17T16:34:16.210Z,30.00
2022-08-17T16:36:55.167Z,30.00
2022-08-17T16:39:26.860Z,30.00
2022-08-17T16:41:56.355Z,30.00
2022-08-17T16:44:26.003Z,30.10
2022-08-17T16:46:54.665Z,30.00
2022-08-17T16:49:36.062Z,30.10
2022-08-17T16:52:10.670Z,30.00
2022-08-17T16:54:41.948Z,30.00
2022-08-17T16:57:10.503Z,30.00
2022-08-17T16:59:43.798Z,30.10
2022-08-17T17:02:16.124Z,30.20
2022-08-17T17:04:51.836Z,30.20
2022-08-17T17:07:49.659Z,30.10
2022-08-17T17:10:23.810Z,30.10
2022-08-17T17:13:01.910Z,30.00
2022-08-17T17:15:49.450Z,30.00
2022-08-17T17:18:20.052Z,29.90
2022-08-17T17:20:57.031Z,29.80
2022-08-17T17:23:47.386Z,29.70
2022-08-17T17:26:34.364Z,29.60
2022-08-17T17:29:24.051Z,29.50
2022-08-17T17:31:59.228Z,29.40
2022-08-17T17:34:30.760Z,29.30
2022-08-17T17:37:07.229Z,29.20
2022-08-17T17:39:43.852Z,29.30
2022-08-17T17:42:20.113Z,29.20
2022-08-17T17:44:54.535Z,29.20
2022-08-17T17:47:23.625Z,29.10
2022-08-17T17:49:52.215Z,29.10
2022-08-17T17:52:31.630Z,29.10
2022-08-17T17:55:18.593Z,29.00
2022-08-17T17:57:58.949Z,28.70
2022-08-17T18:00:32.448Z,28.50
2022-08-17T18:03:12.573Z,28.20
2022-08-17T18:06:14.953Z,28.00
2022-08-17T18:08:55.998Z,27.70
2022-08-17T18:11:40.003Z,27.40
2022-08-17T18:14:23.503Z,27.30
2022-08-17T18:16:57.545Z,27.10
2022-08-17T18:19:28.987Z,26.90
2022-08-17T18:22:07.657Z,26.70
2022-08-17T18:24:45.344Z,26.60
2022-08-17T18:27:24.491Z,26.50
2022-08-17T18:29:54.480Z,26.40
2022-08-17T18:32:33.737Z,26.30
2022-08-17T18:35:18.722Z,26.20
2022-08-17T18:37:49.929Z,26.00
2022-08-17T18:40:30.274Z,25.90
2022-08-17T18:43:06.639Z,25.80
2022-08-17T18:45:39.641Z,25.60
2022-08-17T18:48:20.740Z,25.50
2022-08-17T18:50:53.354Z,25.30
2022-08-17T18:53:34.451Z,25.20
2022-08-17T18:56:26.372Z,25.10
2022-08-17T18:59:11.282Z,25.00
2022-08-17T19:01:53.654Z,24.80
2022-08-17T19:04:37.367Z,24.70
2022-08-17T19:07:26.038Z,24.70
2022-08-17T19:09:59.572Z,24.60
2022-08-17T19:12:35.950Z,24.60
2022-08-17T19:15:05.263Z,24.60
2022-08-17T19:17:39.555Z,24.70
2022-08-17T19:20:16.344Z,24.80
2022-08-17T19:23:03.376Z,24.90
2022-08-17T19:25:36.083Z,24.90
2022-08-17T19:28:21.639Z,24.90
2022-08-17T19:30:51.962Z,25.00
2022-08-17T19:33:20.648Z,25.00
2022-08-17T19:35:59.876Z,25.00
2022-08-17T19:38:46.000Z,25.00
2022-08-17T19:41:21.637Z,25.00
2022-08-17T19:44:10.195Z,25.00
2022-08-17T19:46:48.683Z,24.90
2022-08-17T19:49:34.469Z,24.90
2022-08-17T19:52:29.361Z,24.70
2022-08-17T19:55:06.368Z,24.50
2022-08-17T19:57:45.378Z,24.40
2022-08-17T20:00:17.636Z,24.20
2022-08-17T20:02:55.623Z,24.10
2022-08-17T20:05:27.080Z,24.10
2022-08-17T20:08:02.700Z,24.00
2022-08-17T20:10:39.979Z,24.00
2022-08-17T20:13:13.604Z,24.00
2022-08-17T20:15:44.803Z,23.90
2022-08-17T20:18:21.201Z,23.90
2022-08-17T20:20:58.356Z,23.80
2022-08-17T20:23:45.183Z,23.70
2022-08-17T20:26:22.544Z,23.60
2022-08-17T20:29:10.807Z,23.50
2022-08-17T20:31:47.355Z,23.30
2022-08-17T20:34:39.727Z,23.30
2022-08-17T20:37:10.740Z,23.10
2022-08-17T20:39:43.035Z,23.00
2022-08-17T20:42:28.221Z,22.90
2022-08-17T20:44:59.020Z,22.90
2022-08-17T20:47:32.869Z,22.80
2022-08-17T20:50:04.801Z,22.80
2022-08-17T20:52:46.753Z,22.70
2022-08-17T20:55:53.301Z,22.70
2022-08-17T20:58:46.679Z,22.80
2022-08-17T21:01:20.286Z,22.80
2022-08-17T21:03:52.276Z,22.80
2022-08-17T21:06:26.162Z,22.70
2022-08-17T21:08:58.972Z,22.70
2022-08-17T21:12:04.435Z,22.70
2022-08-17T21:14:44.665Z,22.70
2022-08-17T21:17:31.241Z,22.70
2022-08-17T21:20:13.503Z,22.70
2022-08-17T21:22:57.801Z,22.60
2022-08-17T21:25:44.999Z,22.60
2022-08-17T21:28:30.165Z,22.50
2022-08-17T21:31:08.950Z,22.50
2022-08-17T21:33:40.394Z,22.40
2022-08-17T21:36:28.031Z,22.40
2022-08-17T21:39:03.069Z,22.40
2022-08-17T21:41:34.675Z,22.30
2022-08-17T21:44:12.233Z,22.30
2022-08-17T21:46:46.769Z,22.20
2022-08-17T21:49:18.113Z,22.20
2022-08-17T21:51:51.160Z,22.20
2022-08-17T21:54:30.985Z,22.20
2022-08-17T21:57:02.160Z,22.20
2022-08-17T21:59:35.669Z,22.10
2022-08-17T22:02:07.160Z,22.00
2022-08-17T22:04:38.000Z,22.00
2022-08-17T22:07:10.470Z,22.00
2022-08-17T22:09:44.881Z,22.00
2022-08-17T22:12:17.266Z,22.00
2022-08-17T22:14:52.410Z,22.10
2022-08-17T22:17:25.111Z,22.10
2022-08-17T22:19:57.605Z,22.20
2022-08-17T22:22:34.732Z,22.20
2022-08-17T22:25:08.036Z,22.20
2022-08-17T22:27:53.232Z,22.10
2022-08-17T22:30:29.769Z,22.20
2022-08-17T22:32:59.591Z,22.20
2022-08-17T22:35:40.010Z,22.30
2022-08-17T22:38:33.310Z,22.30
2022-08-17T22:41:50.502Z,22.30
2022-08-17T22:44:25.647Z,22.30
2022-08-17T22:47:02.744Z,22.20
2022-08-17T22:49:35.267Z,22.10
2022-08-17T22:52:07.841Z,22.00
2022-08-17T22:54:55.040Z,22.00
2022-08-17T22:57:52.616Z,21.90
2022-08-17T23:00:34.419Z,21.80
2022-08-17T23:03:13.008Z,21.70
2022-08-17T23:05:45.113Z,21.70
2022-08-17T23:08:14.353Z,21.70
2022-08-17T23:10:45.433Z,21.60
2022-08-17T23:13:14.020Z,21.70
2022-08-17T23:15:43.145Z,21.60
2022-08-17T23:18:12.086Z,21.60
2022-08-17T23:20:42.187Z,21.50
2022-08-17T23:23:12.381Z,21.60
2022-08-17T23:25:44.423Z,21.60
2022-08-17T23:28:14.609Z,21.70
2022-08-17T23:30:46.740Z,21.70
2022-08-17T23:33:21.393Z,21.80
2022-08-17T23:35:50.154Z,21.90
2022-08-17T23:38:18.669Z,21.90
2022-08-17T23:40:47.137Z,21.90
2022-08-17T23:43:24.337Z,21.90
2022-08-17T23:45:55.234Z,21.90
2022-08-17T23:48:35.615Z,22.00
2022-08-17T23:51:09.848Z,22.10
2022-08-17T23:53:42.544Z,22.20
2022-08-17T23:56:11.804Z,22.20
2022-08-17T23:58:43.399Z,22.20
